sensor_id;sensor_type;location;lat;lon;timestamp;P1;durP1;ratioP1;P2;durP2;ratioP2
6007;SDS011;3032;49.484;11.112;2023-07-29T00:01:07;4.67;;;4.27;;
6007;SDS011;3032;49.484;11.112;2023-07-29T00:03:33;4.90;;;3.87;;
6007;SDS011;3032;49.484;11.112;2023-07-29T00:05:58;4.30;;;4.00;;
6007;SDS011;3032;49.484;11.112;2023-07-29T00:08:24;5.40;;;4.43;;
6007;SDS011;3032;49.484;11.112;2023-07-29T00:10:50;5.73;;;4.50;;
6007;SDS011;3032;49.484;11.112;2023-07-29T00:13:15;5.20;;;4.80;;
6007;SDS011;3032;49.484;11.112;2023-07-29T00:15:41;5.60;;;5.20;;
6007;SDS011;3032;49.484;11.112;2023-07-29T00:18:06;5.33;;;4.90;;
6007;SDS011;3032;49.484;11.112;2023-07-29T00:20:32;5.47;;;5.07;;
6007;SDS011;3032;49.484;11.112;2023-07-29T00:22:57;5.50;;;5.00;;
6007;SDS011;3032;49.484;11.112;2023-07-29T00:25:23;5.10;;;4.70;;
6007;SDS011;3032;49.484;11.112;2023-07-29T00:27:49;5.90;;;4.53;;
6007;SDS011;3032;49.484;11.112;2023-07-29T00:30:15;6.07;;;5.50;;
6007;SDS011;3032;49.484;11.112;2023-07-29T00:32:40;6.93;;;5.90;;
6007;SDS011;3032;49.484;11.112;2023-07-29T00:35:06;5.80;;;5.27;;
6007;SDS011;3032;49.484;11.112;2023-07-29T00:37:32;6.35;;;5.75;;
6007;SDS011;3032;49.484;11.112;2023-07-29T00:39:58;6.20;;;5.70;;
6007;SDS011;3032;49.484;11.112;2023-07-29T00:42:23;8.10;;;5.70;;
6007;SDS011;3032;49.484;11.112;2023-07-29T00:44:49;6.32;;;5.72;;
6007;SDS011;3032;49.484;11.112;2023-07-29T00:47:15;7.40;;;6.63;;
6007;SDS011;3032;49.484;11.112;2023-07-29T00:49:42;7.78;;;6.97;;
6007;SDS011;3032;49.484;11.112;2023-07-29T00:52:09;11.38;;;7.00;;
6007;SDS011;3032;49.484;11.112;2023-07-29T00:54:37;7.13;;;6.45;;
6007;SDS011;3032;49.484;11.112;2023-07-29T00:57:06;6.32;;;5.75;;
6007;SDS011;3032;49.484;11.112;2023-07-29T00:59:34;9.43;;;7.10;;
6007;SDS011;3032;49.484;11.112;2023-07-29T01:02:00;7.35;;;6.65;;
6007;SDS011;3032;49.484;11.112;2023-07-29T01:04:26;6.68;;;6.15;;
6007;SDS011;3032;49.484;11.112;2023-07-29T01:12:19;7.93;;;6.30;;
6007;SDS011;3032;49.484;11.112;2023-07-29T01:14:50;8.13;;;7.38;;
6007;SDS011;3032;49.484;11.112;2023-07-29T01:17:32;6.40;;;5.80;;
6007;SDS011;3032;49.484;11.112;2023-07-29T01:20:07;6.68;;;6.07;;
6007;SDS011;3032;49.484;11.112;2023-07-29T01:22:35;7.15;;;6.55;;
6007;SDS011;3032;49.484;11.112;2023-07-29T01:25:01;6.80;;;6.20;;
6007;SDS011;3032;49.484;11.112;2023-07-29T01:27:27;7.90;;;7.18;;
6007;SDS011;3032;49.484;11.112;2023-07-29T01:29:53;7.93;;;7.13;;
6007;SDS011;3032;49.484;11.112;2023-07-29T01:32:24;8.32;;;7.40;;
6007;SDS011;3032;49.484;11.112;2023-07-29T01:34:53;8.25;;;7.13;;
6007;SDS011;3032;49.484;11.112;2023-07-29T01:37:26;8.93;;;7.30;;
6007;SDS011;3032;49.484;11.112;2023-07-29T01:39:55;7.80;;;6.88;;
6007;SDS011;3032;49.484;11.112;2023-07-29T01:42:22;7.43;;;6.43;;
6007;SDS011;3032;49.484;11.112;2023-07-29T01:44:49;10.80;;;8.70;;
6007;SDS011;3032;49.484;11.112;2023-07-29T01:47:14;7.80;;;7.00;;
6007;SDS011;3032;49.484;11.112;2023-07-29T01:49:40;6.97;;;6.37;;
6007;SDS011;3032;49.484;11.112;2023-07-29T01:52:06;9.17;;;8.20;;
6007;SDS011;3032;49.484;11.112;2023-07-29T01:54:31;7.87;;;7.07;;
6007;SDS011;3032;49.484;11.112;2023-07-29T01:56:57;9.30;;;7.83;;
6007;SDS011;3032;49.484;11.112;2023-07-29T01:59:22;8.10;;;7.30;;
6007;SDS011;3032;49.484;11.112;2023-07-29T02:01:48;11.17;;;8.37;;
6007;SDS011;3032;49.484;11.112;2023-07-29T02:04:14;9.57;;;7.90;;
6007;SDS011;3032;49.484;11.112;2023-07-29T02:06:39;10.20;;;9.20;;
6007;SDS011;3032;49.484;11.112;2023-07-29T02:09:05;8.30;;;7.13;;
6007;SDS011;3032;49.484;11.112;2023-07-29T02:11:30;10.80;;;8.23;;
6007;SDS011;3032;49.484;11.112;2023-07-29T02:13:56;10.70;;;6.27;;
6007;SDS011;3032;49.484;11.112;2023-07-29T02:16:22;7.20;;;6.60;;
6007;SDS011;3032;49.484;11.112;2023-07-29T02:18:48;11.85;;;7.95;;
6007;SDS011;3032;49.484;11.112;2023-07-29T02:21:15;11.70;;;8.20;;
6007;SDS011;3032;49.484;11.112;2023-07-29T02:23:40;11.88;;;9.50;;
6007;SDS011;3032;49.484;11.112;2023-07-29T02:26:06;11.50;;;8.53;;
6007;SDS011;3032;49.484;11.112;2023-07-29T02:28:31;8.60;;;7.80;;
6007;SDS011;3032;49.484;11.112;2023-07-29T02:31:17;14.20;;;9.30;;
6007;SDS011;3032;49.484;11.112;2023-07-29T02:33:45;10.20;;;9.20;;
6007;SDS011;3032;49.484;11.112;2023-07-29T02:36:11;13.20;;;10.00;;
6007;SDS011;3032;49.484;11.112;2023-07-29T02:38:38;12.77;;;10.88;;
6007;SDS011;3032;49.484;11.112;2023-07-29T02:41:03;15.23;;;12.55;;
6007;SDS011;3032;49.484;11.112;2023-07-29T02:43:29;11.40;;;10.10;;
6007;SDS011;3032;49.484;11.112;2023-07-29T02:45:55;11.17;;;10.03;;
6007;SDS011;3032;49.484;11.112;2023-07-29T02:48:20;14.97;;;12.73;;
6007;SDS011;3032;49.484;11.112;2023-07-29T02:50:46;12.47;;;11.17;;
6007;SDS011;3032;49.484;11.112;2023-07-29T02:53:11;13.07;;;9.73;;
6007;SDS011;3032;49.484;11.112;2023-07-29T02:55:40;13.50;;;10.23;;
6007;SDS011;3032;49.484;11.112;2023-07-29T02:58:06;17.98;;;11.65;;
6007;SDS011;3032;49.484;11.112;2023-07-29T03:00:32;10.90;;;9.50;;
6007;SDS011;3032;49.484;11.112;2023-07-29T03:02:58;14.95;;;11.63;;
6007;SDS011;3032;49.484;11.112;2023-07-29T03:05:24;16.92;;;9.73;;
6007;SDS011;3032;49.484;11.112;2023-07-29T03:07:52;12.93;;;9.73;;
6007;SDS011;3032;49.484;11.112;2023-07-29T03:10:17;9.50;;;8.67;;
6007;SDS011;3032;49.484;11.112;2023-07-29T03:12:43;13.77;;;10.40;;
6007;SDS011;3032;49.484;11.112;2023-07-29T03:15:08;8.43;;;7.57;;
6007;SDS011;3032;49.484;11.112;2023-07-29T03:17:34;13.50;;;9.63;;
6007;SDS011;3032;49.484;11.112;2023-07-29T03:20:00;8.53;;;7.73;;
6007;SDS011;3032;49.484;11.112;2023-07-29T03:22:25;9.63;;;8.60;;
6007;SDS011;3032;49.484;11.112;2023-07-29T03:24:51;16.07;;;10.80;;
6007;SDS011;3032;49.484;11.112;2023-07-29T03:27:16;22.60;;;15.73;;
6007;SDS011;3032;49.484;11.112;2023-07-29T03:29:42;16.87;;;13.40;;
6007;SDS011;3032;49.484;11.112;2023-07-29T03:32:08;23.60;;;16.50;;
6007;SDS011;3032;49.484;11.112;2023-07-29T03:34:33;12.47;;;10.73;;
6007;SDS011;3032;49.484;11.112;2023-07-29T03:37:00;17.03;;;12.93;;
6007;SDS011;3032;49.484;11.112;2023-07-29T03:39:26;16.83;;;13.75;;
6007;SDS011;3032;49.484;11.112;2023-07-29T03:41:52;13.43;;;10.87;;
6007;SDS011;3032;49.484;11.112;2023-07-29T03:44:17;18.00;;;13.50;;
6007;SDS011;3032;49.484;11.112;2023-07-29T03:46:43;13.53;;;10.43;;
6007;SDS011;3032;49.484;11.112;2023-07-29T03:49:09;15.50;;;11.90;;
6007;SDS011;3032;49.484;11.112;2023-07-29T03:51:35;15.27;;;12.87;;
6007;SDS011;3032;49.484;11.112;2023-07-29T03:54:01;17.33;;;13.53;;
6007;SDS011;3032;49.484;11.112;2023-07-29T03:56:26;14.87;;;11.93;;
6007;SDS011;3032;49.484;11.112;2023-07-29T03:58:52;18.63;;;14.50;;
6007;SDS011;3032;49.484;11.112;2023-07-29T04:01:18;18.77;;;12.83;;
6007;SDS011;3032;49.484;11.112;2023-07-29T04:03:44;12.00;;;10.48;;
6007;SDS011;3032;49.484;11.112;2023-07-29T04:06:11;12.88;;;10.77;;
6007;SDS011;3032;49.484;11.112;2023-07-29T04:08:37;11.20;;;8.43;;
6007;SDS011;3032;49.484;11.112;2023-07-29T04:11:02;11.83;;;7.90;;
6007;SDS011;3032;49.484;11.112;2023-07-29T04:13:28;8.37;;;7.50;;
6007;SDS011;3032;49.484;11.112;2023-07-29T04:15:53;10.00;;;8.73;;
6007;SDS011;3032;49.484;11.112;2023-07-29T04:18:19;14.17;;;10.10;;
6007;SDS011;3032;49.484;11.112;2023-07-29T04:20:44;9.73;;;8.80;;
6007;SDS011;3032;49.484;11.112;2023-07-29T04:23:10;9.77;;;8.77;;
6007;SDS011;3032;49.484;11.112;2023-07-29T04:25:36;10.37;;;8.13;;
6007;SDS011;3032;49.484;11.112;2023-07-29T04:28:02;7.90;;;7.10;;
6007;SDS011;3032;49.484;11.112;2023-07-29T04:30:29;8.13;;;6.72;;
6007;SDS011;3032;49.484;11.112;2023-07-29T04:32:55;8.67;;;7.30;;
6007;SDS011;3032;49.484;11.112;2023-07-29T04:35:20;7.87;;;6.60;;
6007;SDS011;3032;49.484;11.112;2023-07-29T04:37:46;6.43;;;5.83;;
6007;SDS011;3032;49.484;11.112;2023-07-29T04:40:13;6.38;;;5.63;;
6007;SDS011;3032;49.484;11.112;2023-07-29T04:42:39;5.40;;;4.93;;
6007;SDS011;3032;49.484;11.112;2023-07-29T04:45:04;5.80;;;5.20;;
6007;SDS011;3032;49.484;11.112;2023-07-29T04:47:30;4.25;;;3.90;;
6007;SDS011;3032;49.484;11.112;2023-07-29T04:49:56;4.60;;;4.20;;
6007;SDS011;3032;49.484;11.112;2023-07-29T04:52:21;4.57;;;4.17;;
6007;SDS011;3032;49.484;11.112;2023-07-29T04:54:47;3.80;;;3.40;;
6007;SDS011;3032;49.484;11.112;2023-07-29T04:57:13;3.83;;;3.53;;
6007;SDS011;3032;49.484;11.112;2023-07-29T04:59:38;4.03;;;3.63;;
6007;SDS011;3032;49.484;11.112;2023-07-29T05:02:04;3.57;;;3.07;;
6007;SDS011;3032;49.484;11.112;2023-07-29T05:04:30;3.17;;;2.97;;
6007;SDS011;3032;49.484;11.112;2023-07-29T05:06:55;2.70;;;2.60;;
6007;SDS011;3032;49.484;11.112;2023-07-29T05:09:21;2.60;;;2.40;;
6007;SDS011;3032;49.484;11.112;2023-07-29T05:11:46;3.70;;;3.00;;
6007;SDS011;3032;49.484;11.112;2023-07-29T05:14:16;3.10;;;3.00;;
6007;SDS011;3032;49.484;11.112;2023-07-29T05:16:42;2.80;;;2.60;;
6007;SDS011;3032;49.484;11.112;2023-07-29T05:19:08;4.35;;;3.00;;
6007;SDS011;3032;49.484;11.112;2023-07-29T05:21:34;3.40;;;3.20;;
6007;SDS011;3032;49.484;11.112;2023-07-29T05:23:59;7.30;;;3.13;;
6007;SDS011;3032;49.484;11.112;2023-07-29T05:26:25;3.20;;;2.80;;
6007;SDS011;3032;49.484;11.112;2023-07-29T05:28:51;2.77;;;2.57;;
6007;SDS011;3032;49.484;11.112;2023-07-29T05:31:17;4.30;;;2.97;;
6007;SDS011;3032;49.484;11.112;2023-07-29T05:33:42;3.27;;;3.00;;
6007;SDS011;3032;49.484;11.112;2023-07-29T05:36:08;5.30;;;2.87;;
6007;SDS011;3032;49.484;11.112;2023-07-29T05:38:34;2.80;;;2.60;;
6007;SDS011;3032;49.484;11.112;2023-07-29T05:40:59;3.80;;;3.23;;
6007;SDS011;3032;49.484;11.112;2023-07-29T05:43:26;4.80;;;3.17;;
6007;SDS011;3032;49.484;11.112;2023-07-29T05:45:52;3.33;;;3.13;;
6007;SDS011;3032;49.484;11.112;2023-07-29T05:48:19;2.97;;;2.60;;
6007;SDS011;3032;49.484;11.112;2023-07-29T05:50:45;2.72;;;2.53;;
6007;SDS011;3032;49.484;11.112;2023-07-29T05:53:10;3.27;;;3.07;;
6007;SDS011;3032;49.484;11.112;2023-07-29T05:55:36;3.47;;;2.80;;
6007;SDS011;3032;49.484;11.112;2023-07-29T05:58:01;2.60;;;2.40;;
6007;SDS011;3032;49.484;11.112;2023-07-29T06:00:27;4.60;;;3.07;;
6007;SDS011;3032;49.484;11.112;2023-07-29T06:02:53;3.00;;;2.30;;
6007;SDS011;3032;49.484;11.112;2023-07-29T06:05:18;6.33;;;2.60;;
6007;SDS011;3032;49.484;11.112;2023-07-29T06:07:44;4.40;;;2.70;;
6007;SDS011;3032;49.484;11.112;2023-07-29T06:10:13;2.70;;;2.50;;
6007;SDS011;3032;49.484;11.112;2023-07-29T06:12:42;5.80;;;2.30;;
6007;SDS011;3032;49.484;11.112;2023-07-29T06:15:08;2.43;;;2.27;;
6007;SDS011;3032;49.484;11.112;2023-07-29T06:17:34;2.97;;;2.77;;
6007;SDS011;3032;49.484;11.112;2023-07-29T06:19:59;3.53;;;2.60;;
6007;SDS011;3032;49.484;11.112;2023-07-29T06:22:25;2.90;;;2.73;;
6007;SDS011;3032;49.484;11.112;2023-07-29T06:24:50;3.03;;;2.50;;
6007;SDS011;3032;49.484;11.112;2023-07-29T06:27:16;2.50;;;2.30;;
6007;SDS011;3032;49.484;11.112;2023-07-29T06:29:41;3.80;;;3.37;;
6007;SDS011;3032;49.484;11.112;2023-07-29T06:32:07;3.37;;;3.07;;
6007;SDS011;3032;49.484;11.112;2023-07-29T06:34:32;4.87;;;2.70;;
6007;SDS011;3032;49.484;11.112;2023-07-29T06:36:58;4.50;;;3.00;;
6007;SDS011;3032;49.484;11.112;2023-07-29T06:39:24;2.70;;;2.40;;
6007;SDS011;3032;49.484;11.112;2023-07-29T06:41:49;3.00;;;2.80;;
6007;SDS011;3032;49.484;11.112;2023-07-29T06:44:15;3.53;;;3.27;;
6007;SDS011;3032;49.484;11.112;2023-07-29T06:46:40;4.20;;;3.47;;
6007;SDS011;3032;49.484;11.112;2023-07-29T06:49:06;4.63;;;3.10;;
6007;SDS011;3032;49.484;11.112;2023-07-29T06:51:31;10.93;;;4.30;;
6007;SDS011;3032;49.484;11.112;2023-07-29T06:53:59;26.83;;;6.05;;
6007;SDS011;3032;49.484;11.112;2023-07-29T06:56:25;9.10;;;5.23;;
6007;SDS011;3032;49.484;11.112;2023-07-29T06:58:51;10.27;;;5.57;;
6007;SDS011;3032;49.484;11.112;2023-07-29T07:01:16;7.63;;;5.10;;
6007;SDS011;3032;49.484;11.112;2023-07-29T07:03:42;9.47;;;5.87;;
6007;SDS011;3032;49.484;11.112;2023-07-29T07:06:07;8.83;;;5.60;;
6007;SDS011;3032;49.484;11.112;2023-07-29T07:08:33;12.37;;;6.70;;
6007;SDS011;3032;49.484;11.112;2023-07-29T07:10:58;9.60;;;6.50;;
6007;SDS011;3032;49.484;11.112;2023-07-29T07:13:24;8.73;;;4.37;;
6007;SDS011;3032;49.484;11.112;2023-07-29T07:15:50;8.50;;;4.93;;
6007;SDS011;3032;49.484;11.112;2023-07-29T07:18:15;7.17;;;4.20;;
6007;SDS011;3032;49.484;11.112;2023-07-29T07:20:41;18.87;;;5.90;;
6007;SDS011;3032;49.484;11.112;2023-07-29T07:23:06;8.50;;;4.80;;
6007;SDS011;3032;49.484;11.112;2023-07-29T07:25:36;6.88;;;4.47;;
6007;SDS011;3032;49.484;11.112;2023-07-29T07:28:01;6.37;;;3.97;;
6007;SDS011;3032;49.484;11.112;2023-07-29T07:30:27;4.17;;;3.87;;
6007;SDS011;3032;49.484;11.112;2023-07-29T07:32:52;5.43;;;4.93;;
6007;SDS011;3032;49.484;11.112;2023-07-29T07:35:18;8.47;;;4.70;;
6007;SDS011;3032;49.484;11.112;2023-07-29T07:37:44;6.10;;;5.50;;
6007;SDS011;3032;49.484;11.112;2023-07-29T07:40:09;6.00;;;5.47;;
6007;SDS011;3032;49.484;11.112;2023-07-29T07:42:36;6.60;;;5.88;;
6007;SDS011;3032;49.484;11.112;2023-07-29T07:45:01;9.47;;;6.90;;
6007;SDS011;3032;49.484;11.112;2023-07-29T07:47:27;4.60;;;4.20;;
6007;SDS011;3032;49.484;11.112;2023-07-29T07:49:52;6.60;;;4.73;;
6007;SDS011;3032;49.484;11.112;2023-07-29T07:52:18;6.50;;;5.80;;
6007;SDS011;3032;49.484;11.112;2023-07-29T07:54:44;5.97;;;5.00;;
6007;SDS011;3032;49.484;11.112;2023-07-29T07:57:09;5.60;;;4.50;;
6007;SDS011;3032;49.484;11.112;2023-07-29T07:59:35;6.97;;;4.77;;
6007;SDS011;3032;49.484;11.112;2023-07-29T08:02:00;4.87;;;4.50;;
6007;SDS011;3032;49.484;11.112;2023-07-29T08:04:26;5.40;;;4.60;;
6007;SDS011;3032;49.484;11.112;2023-07-29T08:06:51;4.90;;;4.47;;
6007;SDS011;3032;49.484;11.112;2023-07-29T08:09:17;7.43;;;5.00;;
6007;SDS011;3032;49.484;11.112;2023-07-29T08:11:42;10.00;;;6.80;;
6007;SDS011;3032;49.484;11.112;2023-07-29T08:14:08;7.10;;;5.33;;
6007;SDS011;3032;49.484;11.112;2023-07-29T08:16:33;21.33;;;7.50;;
6007;SDS011;3032;49.484;11.112;2023-07-29T08:18:59;14.87;;;7.70;;
6007;SDS011;3032;49.484;11.112;2023-07-29T08:21:26;27.93;;;9.87;;
6007;SDS011;3032;49.484;11.112;2023-07-29T08:23:52;17.25;;;10.73;;
6007;SDS011;3032;49.484;11.112;2023-07-29T08:26:17;16.10;;;9.57;;
6007;SDS011;3032;49.484;11.112;2023-07-29T08:28:43;12.60;;;8.90;;
6007;SDS011;3032;49.484;11.112;2023-07-29T08:31:08;15.57;;;11.13;;
6007;SDS011;3032;49.484;11.112;2023-07-29T08:33:34;15.60;;;10.77;;
6007;SDS011;3032;49.484;11.112;2023-07-29T08:36:00;17.97;;;10.57;;
6007;SDS011;3032;49.484;11.112;2023-07-29T08:38:26;12.90;;;8.70;;
6007;SDS011;3032;49.484;11.112;2023-07-29T08:43:43;18.08;;;12.23;;
6007;SDS011;3032;49.484;11.112;2023-07-29T08:46:16;14.73;;;10.73;;
6007;SDS011;3032;49.484;11.112;2023-07-29T08:48:42;15.10;;;10.77;;
6007;SDS011;3032;49.484;11.112;2023-07-29T08:51:09;15.82;;;9.93;;
6007;SDS011;3032;49.484;11.112;2023-07-29T08:53:36;12.40;;;9.45;;
6007;SDS011;3032;49.484;11.112;2023-07-29T08:56:02;16.73;;;10.75;;
6007;SDS011;3032;49.484;11.112;2023-07-29T08:58:28;9.23;;;7.30;;
6007;SDS011;3032;49.484;11.112;2023-07-29T09:00:54;10.87;;;9.00;;
6007;SDS011;3032;49.484;11.112;2023-07-29T09:03:20;7.80;;;6.77;;
6007;SDS011;3032;49.484;11.112;2023-07-29T09:05:46;4.63;;;4.05;;
6007;SDS011;3032;49.484;11.112;2023-07-29T09:08:13;7.28;;;4.68;;
6007;SDS011;3032;49.484;11.112;2023-07-29T09:10:39;4.75;;;4.22;;
6007;SDS011;3032;49.484;11.112;2023-07-29T09:13:04;4.53;;;4.10;;
6007;SDS011;3032;49.484;11.112;2023-07-29T09:15:31;5.07;;;4.40;;
6007;SDS011;3032;49.484;11.112;2023-07-29T09:17:58;6.55;;;4.38;;
6007;SDS011;3032;49.484;11.112;2023-07-29T09:20:27;4.10;;;3.40;;
6007;SDS011;3032;49.484;11.112;2023-07-29T09:22:53;4.18;;;3.17;;
6007;SDS011;3032;49.484;11.112;2023-07-29T09:25:24;3.45;;;3.15;;
6007;SDS011;3032;49.484;11.112;2023-07-29T09:27:50;5.75;;;4.65;;
6007;SDS011;3032;49.484;11.112;2023-07-29T09:30:16;13.10;;;5.90;;
6007;SDS011;3032;49.484;11.112;2023-07-29T09:32:42;10.10;;;7.15;;
6007;SDS011;3032;49.484;11.112;2023-07-29T09:35:09;13.77;;;5.10;;
6007;SDS011;3032;49.484;11.112;2023-07-29T09:37:36;17.50;;;7.85;;
6007;SDS011;3032;49.484;11.112;2023-07-29T09:40:03;9.38;;;7.10;;
6007;SDS011;3032;49.484;11.112;2023-07-29T09:42:29;13.02;;;7.45;;
6007;SDS011;3032;49.484;11.112;2023-07-29T09:44:55;12.33;;;8.83;;
6007;SDS011;3032;49.484;11.112;2023-07-29T09:47:21;10.60;;;7.13;;
6007;SDS011;3032;49.484;11.112;2023-07-29T09:49:48;6.68;;;4.97;;
6007;SDS011;3032;49.484;11.112;2023-07-29T09:52:18;5.80;;;5.30;;
6007;SDS011;3032;49.484;11.112;2023-07-29T09:54:45;8.05;;;6.30;;
6007;SDS011;3032;49.484;11.112;2023-07-29T09:57:15;4.60;;;3.95;;
6007;SDS011;3032;49.484;11.112;2023-07-29T09:59:43;5.95;;;5.40;;
6007;SDS011;3032;49.484;11.112;2023-07-29T10:02:09;4.40;;;3.63;;
6007;SDS011;3032;49.484;11.112;2023-07-29T10:04:41;4.65;;;4.00;;
6007;SDS011;3032;49.484;11.112;2023-07-29T10:07:07;6.70;;;5.10;;
6007;SDS011;3032;49.484;11.112;2023-07-29T10:09:35;6.78;;;4.40;;
6007;SDS011;3032;49.484;11.112;2023-07-29T10:12:02;5.53;;;5.03;;
6007;SDS011;3032;49.484;11.112;2023-07-29T10:14:30;6.07;;;5.32;;
6007;SDS011;3032;49.484;11.112;2023-07-29T10:16:56;7.53;;;6.40;;
6007;SDS011;3032;49.484;11.112;2023-07-29T10:19:22;5.80;;;5.30;;
6007;SDS011;3032;49.484;11.112;2023-07-29T10:21:50;5.53;;;4.65;;
6007;SDS011;3032;49.484;11.112;2023-07-29T10:24:18;6.28;;;4.72;;
6007;SDS011;3032;49.484;11.112;2023-07-29T10:26:48;5.13;;;4.40;;
6007;SDS011;3032;49.484;11.112;2023-07-29T10:29:17;6.93;;;4.80;;
6007;SDS011;3032;49.484;11.112;2023-07-29T10:31:47;4.70;;;4.18;;
6007;SDS011;3032;49.484;11.112;2023-07-29T10:34:17;6.13;;;4.50;;
6007;SDS011;3032;49.484;11.112;2023-07-29T10:36:44;7.25;;;4.97;;
6007;SDS011;3032;49.484;11.112;2023-07-29T10:39:11;5.57;;;4.88;;
6007;SDS011;3032;49.484;11.112;2023-07-29T10:49:53;4.60;;;3.80;;
6007;SDS011;3032;49.484;11.112;2023-07-29T10:52:30;3.85;;;3.55;;
6007;SDS011;3032;49.484;11.112;2023-07-29T10:54:59;3.40;;;3.20;;
6007;SDS011;3032;49.484;11.112;2023-07-29T10:59:57;5.28;;;3.30;;
6007;SDS011;3032;49.484;11.112;2023-07-29T11:02:35;3.95;;;3.55;;
6007;SDS011;3032;49.484;11.112;2023-07-29T11:05:05;2.95;;;2.75;;
6007;SDS011;3032;49.484;11.112;2023-07-29T11:07:45;2.83;;;2.63;;
6007;SDS011;3032;49.484;11.112;2023-07-29T11:10:12;2.33;;;2.22;;
6007;SDS011;3032;49.484;11.112;2023-07-29T11:20:20;2.20;;;2.10;;
6007;SDS011;3032;49.484;11.112;2023-07-29T11:22:47;3.08;;;2.40;;
6007;SDS011;3032;49.484;11.112;2023-07-29T11:25:14;2.78;;;2.08;;
6007;SDS011;3032;49.484;11.112;2023-07-29T11:27:41;3.75;;;1.95;;
6007;SDS011;3032;49.484;11.112;2023-07-29T11:30:08;2.20;;;2.10;;
6007;SDS011;3032;49.484;11.112;2023-07-29T11:32:36;2.65;;;2.20;;
6007;SDS011;3032;49.484;11.112;2023-07-29T11:35:03;2.47;;;2.28;;
6007;SDS011;3032;49.484;11.112;2023-07-29T11:37:33;1.95;;;1.85;;
6007;SDS011;3032;49.484;11.112;2023-07-29T11:39:59;2.00;;;1.83;;
6007;SDS011;3032;49.484;11.112;2023-07-29T11:42:26;2.42;;;2.03;;
6007;SDS011;3032;49.484;11.112;2023-07-29T11:44:53;2.45;;;1.90;;
6007;SDS011;3032;49.484;11.112;2023-07-29T11:47:21;2.67;;;2.30;;
6007;SDS011;3032;49.484;11.112;2023-07-29T11:49:46;1.70;;;1.60;;
6007;SDS011;3032;49.484;11.112;2023-07-29T11:52:12;2.10;;;1.70;;
6007;SDS011;3032;49.484;11.112;2023-07-29T11:54:38;1.97;;;1.80;;
6007;SDS011;3032;49.484;11.112;2023-07-29T11:57:08;2.17;;;1.98;;
6007;SDS011;3032;49.484;11.112;2023-07-29T11:59:34;4.28;;;1.60;;
6007;SDS011;3032;49.484;11.112;2023-07-29T12:02:01;1.90;;;1.80;;
6007;SDS011;3032;49.484;11.112;2023-07-29T12:04:30;2.10;;;2.00;;
6007;SDS011;3032;49.484;11.112;2023-07-29T12:06:56;1.73;;;1.60;;
6007;SDS011;3032;49.484;11.112;2023-07-29T12:09:22;1.80;;;1.70;;
6007;SDS011;3032;49.484;11.112;2023-07-29T12:11:48;4.63;;;1.70;;
6007;SDS011;3032;49.484;11.112;2023-07-29T12:14:15;1.67;;;1.57;;
6007;SDS011;3032;49.484;11.112;2023-07-29T12:16:44;2.05;;;1.50;;
6007;SDS011;3032;49.484;11.112;2023-07-29T12:19:13;4.40;;;1.73;;
6007;SDS011;3032;49.484;11.112;2023-07-29T12:21:42;2.28;;;1.98;;
6007;SDS011;3032;49.484;11.112;2023-07-29T12:24:08;1.67;;;1.58;;
6007;SDS011;3032;49.484;11.112;2023-07-29T12:26:35;1.67;;;1.43;;
6007;SDS011;3032;49.484;11.112;2023-07-29T12:29:11;2.45;;;2.13;;
6007;SDS011;3032;49.484;11.112;2023-07-29T12:31:40;4.05;;;1.58;;
6007;SDS011;3032;49.484;11.112;2023-07-29T12:34:06;1.53;;;1.10;;
6007;SDS011;3032;49.484;11.112;2023-07-29T12:36:42;1.80;;;1.65;;
6007;SDS011;3032;49.484;11.112;2023-07-29T12:39:22;1.25;;;1.25;;
6007;SDS011;3032;49.484;11.112;2023-07-29T12:41:49;1.85;;;1.40;;
6007;SDS011;3032;49.484;11.112;2023-07-29T12:44:16;2.17;;;1.52;;
6007;SDS011;3032;49.484;11.112;2023-07-29T12:46:43;1.60;;;1.58;;
6007;SDS011;3032;49.484;11.112;2023-07-29T12:49:08;1.70;;;1.60;;
6007;SDS011;3032;49.484;11.112;2023-07-29T12:51:34;4.00;;;1.57;;
6007;SDS011;3032;49.484;11.112;2023-07-29T12:54:01;1.73;;;1.63;;
6007;SDS011;3032;49.484;11.112;2023-07-29T12:56:27;1.45;;;1.45;;
6007;SDS011;3032;49.484;11.112;2023-07-29T12:58:53;2.03;;;1.67;;
6007;SDS011;3032;49.484;11.112;2023-07-29T13:01:19;1.90;;;1.80;;
6007;SDS011;3032;49.484;11.112;2023-07-29T13:03:44;1.73;;;1.63;;
6007;SDS011;3032;49.484;11.112;2023-07-29T13:06:10;3.47;;;1.60;;
6007;SDS011;3032;49.484;11.112;2023-07-29T13:08:36;1.80;;;1.70;;
6007;SDS011;3032;49.484;11.112;2023-07-29T13:11:02;1.60;;;1.50;;
6007;SDS011;3032;49.484;11.112;2023-07-29T13:13:28;2.85;;;1.70;;
6007;SDS011;3032;49.484;11.112;2023-07-29T13:15:54;1.40;;;1.33;;
6007;SDS011;3032;49.484;11.112;2023-07-29T13:18:21;1.67;;;1.57;;
6007;SDS011;3032;49.484;11.112;2023-07-29T13:20:46;2.50;;;2.20;;
6007;SDS011;3032;49.484;11.112;2023-07-29T13:23:12;1.30;;;1.20;;
6007;SDS011;3032;49.484;11.112;2023-07-29T13:25:38;1.77;;;1.47;;
6007;SDS011;3032;49.484;11.112;2023-07-29T13:28:03;1.57;;;1.47;;
6007;SDS011;3032;49.484;11.112;2023-07-29T13:30:29;1.80;;;1.70;;
6007;SDS011;3032;49.484;11.112;2023-07-29T13:32:55;2.35;;;1.40;;
6007;SDS011;3032;49.484;11.112;2023-07-29T13:35:21;1.53;;;1.43;;
6007;SDS011;3032;49.484;11.112;2023-07-29T13:37:46;2.07;;;1.77;;
6007;SDS011;3032;49.484;11.112;2023-07-29T13:40:12;1.67;;;1.33;;
6007;SDS011;3032;49.484;11.112;2023-07-29T13:42:37;1.30;;;1.20;;
6007;SDS011;3032;49.484;11.112;2023-07-29T13:45:03;2.00;;;1.40;;
6007;SDS011;3032;49.484;11.112;2023-07-29T13:47:29;2.25;;;1.35;;
6007;SDS011;3032;49.484;11.112;2023-07-29T13:49:55;2.13;;;1.60;;
6007;SDS011;3032;49.484;11.112;2023-07-29T13:52:20;1.50;;;1.50;;
6007;SDS011;3032;49.484;11.112;2023-07-29T13:54:46;2.00;;;1.90;;
6007;SDS011;3032;49.484;11.112;2023-07-29T13:57:11;1.53;;;1.43;;
6007;SDS011;3032;49.484;11.112;2023-07-29T13:59:37;1.30;;;1.30;;
6007;SDS011;3032;49.484;11.112;2023-07-29T14:02:05;1.20;;;1.20;;
6007;SDS011;3032;49.484;11.112;2023-07-29T14:04:31;1.60;;;1.20;;
6007;SDS011;3032;49.484;11.112;2023-07-29T14:06:58;1.50;;;1.40;;
6007;SDS011;3032;49.484;11.112;2023-07-29T14:09:23;1.50;;;1.40;;
6007;SDS011;3032;49.484;11.112;2023-07-29T14:11:49;2.35;;;1.20;;
6007;SDS011;3032;49.484;11.112;2023-07-29T14:14:15;1.37;;;1.23;;
6007;SDS011;3032;49.484;11.112;2023-07-29T14:16:40;1.77;;;1.60;;
6007;SDS011;3032;49.484;11.112;2023-07-29T14:19:06;1.80;;;1.70;;
6007;SDS011;3032;49.484;11.112;2023-07-29T14:21:32;1.40;;;1.40;;
6007;SDS011;3032;49.484;11.112;2023-07-29T14:23:57;2.20;;;1.30;;
6007;SDS011;3032;49.484;11.112;2023-07-29T14:26:23;2.90;;;1.90;;
6007;SDS011;3032;49.484;11.112;2023-07-29T14:28:48;1.77;;;1.40;;
6007;SDS011;3032;49.484;11.112;2023-07-29T14:31:14;1.40;;;1.40;;
6007;SDS011;3032;49.484;11.112;2023-07-29T14:33:42;1.70;;;1.27;;
6007;SDS011;3032;49.484;11.112;2023-07-29T14:36:07;1.50;;;1.40;;
6007;SDS011;3032;49.484;11.112;2023-07-29T14:38:33;1.40;;;1.30;;
6007;SDS011;3032;49.484;11.112;2023-07-29T14:40:59;1.10;;;1.10;;
6007;SDS011;3032;49.484;11.112;2023-07-29T14:43:25;1.00;;;1.00;;
6007;SDS011;3032;49.484;11.112;2023-07-29T14:45:51;1.10;;;0.97;;
6007;SDS011;3032;49.484;11.112;2023-07-29T14:48:16;2.07;;;1.97;;
6007;SDS011;3032;49.484;11.112;2023-07-29T14:50:42;1.43;;;1.30;;
6007;SDS011;3032;49.484;11.112;2023-07-29T14:53:08;1.20;;;1.20;;
6007;SDS011;3032;49.484;11.112;2023-07-29T14:55:34;1.73;;;1.63;;
6007;SDS011;3032;49.484;11.112;2023-07-29T14:58:00;1.63;;;0.90;;
6007;SDS011;3032;49.484;11.112;2023-07-29T15:00:26;0.90;;;0.90;;
6007;SDS011;3032;49.484;11.112;2023-07-29T15:02:52;1.00;;;1.00;;
6007;SDS011;3032;49.484;11.112;2023-07-29T15:05:18;1.10;;;1.10;;
6007;SDS011;3032;49.484;11.112;2023-07-29T15:07:43;5.00;;;1.27;;
6007;SDS011;3032;49.484;11.112;2023-07-29T15:10:09;1.10;;;1.00;;
6007;SDS011;3032;49.484;11.112;2023-07-29T15:12:35;1.00;;;1.00;;
6007;SDS011;3032;49.484;11.112;2023-07-29T15:15:00;1.73;;;1.20;;
6007;SDS011;3032;49.484;11.112;2023-07-29T15:17:26;1.87;;;1.23;;
6007;SDS011;3032;49.484;11.112;2023-07-29T15:19:52;1.83;;;1.73;;